Stoneville, North Carolina
Current Conditions -  °F | °C
As of 5:35 PM on Monday 22 Dec 2014 (Local Time) from KSIF Reporting Station
Haze Haze  
Wind Chill: 36°   Ceiling: 500
Heat Index: 36°   Visibility: 2mi
Dew Point: 35°   Wind: 0mph
Humidity: 99%   Direction: NA
Pressure: 30.1"   Gusts: NA
Location:  36.47°N, 79.91°W
Report Text: KSIF 222235Z AUTO 00000KT 2SM BR OVC005 02/02 A3010 RMK AO2 T00200018
Loading
Personal Weather Stations






























Interactive Weather Map New forecast layout! Learn more

10-Day Weather Forecast

Advertisements
Track Severe Weather on mobile